sensor_id;sensor_type;location;lat;lon;timestamp;temperature;humidity
1461;DHT22;724;49.910;12.530;2024-03-02T00:00:52;5.20;99.90
1461;DHT22;724;49.910;12.530;2024-03-02T00:03:19;5.30;99.90
1461;DHT22;724;49.910;12.530;2024-03-02T00:05:50;5.30;99.90
1461;DHT22;724;49.910;12.530;2024-03-02T00:08:23;5.20;99.90
1461;DHT22;724;49.910;12.530;2024-03-02T00:10:51;5.20;99.90
1461;DHT22;724;49.910;12.530;2024-03-02T00:13:21;5.20;99.90
1461;DHT22;724;49.910;12.530;2024-03-02T00:15:51;5.10;99.90
1461;DHT22;724;49.910;12.530;2024-03-02T00:18:20;5.10;99.90
1461;DHT22;724;49.910;12.530;2024-03-02T00:20:47;5.10;99.90
1461;DHT22;724;49.910;12.530;2024-03-02T00:23:16;5.10;99.90
1461;DHT22;724;49.910;12.530;2024-03-02T00:25:46;5.20;99.90
1461;DHT22;724;49.910;12.530;2024-03-02T00:28:16;5.20;99.90
1461;DHT22;724;49.910;12.530;2024-03-02T00:30:52;5.10;99.90
1461;DHT22;724;49.910;12.530;2024-03-02T00:33:21;5.10;99.90
1461;DHT22;724;49.910;12.530;2024-03-02T00:35:48;5.10;99.90
1461;DHT22;724;49.910;12.530;2024-03-02T00:38:17;5.10;99.90
1461;DHT22;724;49.910;12.530;2024-03-02T00:40:44;5.10;99.90
1461;DHT22;724;49.910;12.530;2024-03-02T00:43:39;5.10;99.90
1461;DHT22;724;49.910;12.530;2024-03-02T00:46:07;5.00;99.90
1461;DHT22;724;49.910;12.530;2024-03-02T00:48:34;5.00;99.90
1461;DHT22;724;49.910;12.530;2024-03-02T00:51:02;5.00;99.90
1461;DHT22;724;49.910;12.530;2024-03-02T00:53:31;4.90;99.90
1461;DHT22;724;49.910;12.530;2024-03-02T00:55:59;4.80;99.90
1461;DHT22;724;49.910;12.530;2024-03-02T00:58:26;4.80;99.90
1461;DHT22;724;49.910;12.530;2024-03-02T01:00:52;4.70;99.90
1461;DHT22;724;49.910;12.530;2024-03-02T01:03:19;4.70;99.90
1461;DHT22;724;49.910;12.530;2024-03-02T01:05:46;4.70;99.90
1461;DHT22;724;49.910;12.530;2024-03-02T01:08:13;4.80;99.90
1461;DHT22;724;49.910;12.530;2024-03-02T01:10:41;4.90;99.90
1461;DHT22;724;49.910;12.530;2024-03-02T01:13:08;4.90;99.90
1461;DHT22;724;49.910;12.530;2024-03-02T01:15:35;5.00;99.90
1461;DHT22;724;49.910;12.530;2024-03-02T01:18:02;4.90;99.90
1461;DHT22;724;49.910;12.530;2024-03-02T01:20:29;4.90;99.90
1461;DHT22;724;49.910;12.530;2024-03-02T01:22:55;5.00;99.90
1461;DHT22;724;49.910;12.530;2024-03-02T01:25:22;5.00;99.90
1461;DHT22;724;49.910;12.530;2024-03-02T01:27:50;5.00;99.90
1461;DHT22;724;49.910;12.530;2024-03-02T01:30:17;4.90;99.90
1461;DHT22;724;49.910;12.530;2024-03-02T01:32:44;4.90;99.90
1461;DHT22;724;49.910;12.530;2024-03-02T01:35:11;4.90;99.90
1461;DHT22;724;49.910;12.530;2024-03-02T01:37:37;4.80;99.90
1461;DHT22;724;49.910;12.530;2024-03-02T01:40:05;4.80;99.90
1461;DHT22;724;49.910;12.530;2024-03-02T01:42:35;4.80;99.90
1461;DHT22;724;49.910;12.530;2024-03-02T01:45:04;4.80;99.90
1461;DHT22;724;49.910;12.530;2024-03-02T01:47:31;4.80;99.90
1461;DHT22;724;49.910;12.530;2024-03-02T01:49:59;4.80;99.90
1461;DHT22;724;49.910;12.530;2024-03-02T01:52:27;4.90;99.90
1461;DHT22;724;49.910;12.530;2024-03-02T01:54:54;4.90;99.90
1461;DHT22;724;49.910;12.530;2024-03-02T01:57:21;4.90;99.90
1461;DHT22;724;49.910;12.530;2024-03-02T01:59:48;4.90;99.90
1461;DHT22;724;49.910;12.530;2024-03-02T02:02:17;5.00;99.90
1461;DHT22;724;49.910;12.530;2024-03-02T02:04:44;5.00;99.90
1461;DHT22;724;49.910;12.530;2024-03-02T02:07:11;5.00;99.90
1461;DHT22;724;49.910;12.530;2024-03-02T02:09:39;5.10;99.90
1461;DHT22;724;49.910;12.530;2024-03-02T02:12:06;5.00;99.90
1461;DHT22;724;49.910;12.530;2024-03-02T02:14:33;4.90;99.90
1461;DHT22;724;49.910;12.530;2024-03-02T02:17:00;4.90;99.90
1461;DHT22;724;49.910;12.530;2024-03-02T02:19:28;4.90;99.90
1461;DHT22;724;49.910;12.530;2024-03-02T02:21:56;4.90;99.90
1461;DHT22;724;49.910;12.530;2024-03-02T02:24:23;4.90;99.90
1461;DHT22;724;49.910;12.530;2024-03-02T02:26:49;4.90;99.90
1461;DHT22;724;49.910;12.530;2024-03-02T02:29:16;5.00;99.90
1461;DHT22;724;49.910;12.530;2024-03-02T02:31:43;4.90;99.90
1461;DHT22;724;49.910;12.530;2024-03-02T02:34:10;4.90;99.90
1461;DHT22;724;49.910;12.530;2024-03-02T02:36:38;4.80;99.90
1461;DHT22;724;49.910;12.530;2024-03-02T02:39:09;4.80;99.90
1461;DHT22;724;49.910;12.530;2024-03-02T02:41:37;4.80;99.90
1461;DHT22;724;49.910;12.530;2024-03-02T02:44:04;4.70;99.90
1461;DHT22;724;49.910;12.530;2024-03-02T02:46:31;4.70;99.90
1461;DHT22;724;49.910;12.530;2024-03-02T02:48:58;4.70;99.90
1461;DHT22;724;49.910;12.530;2024-03-02T02:51:24;4.80;99.90
1461;DHT22;724;49.910;12.530;2024-03-02T02:53:50;4.80;99.90
1461;DHT22;724;49.910;12.530;2024-03-02T02:56:19;4.80;99.90
1461;DHT22;724;49.910;12.530;2024-03-02T02:58:45;4.80;99.90
1461;DHT22;724;49.910;12.530;2024-03-02T03:01:12;4.80;99.90
1461;DHT22;724;49.910;12.530;2024-03-02T03:03:39;4.80;99.90
1461;DHT22;724;49.910;12.530;2024-03-02T03:06:06;4.70;99.90
1461;DHT22;724;49.910;12.530;2024-03-02T03:08:33;4.70;99.90
1461;DHT22;724;49.910;12.530;2024-03-02T03:10:59;4.70;99.90
1461;DHT22;724;49.910;12.530;2024-03-02T03:13:27;4.70;99.90
1461;DHT22;724;49.910;12.530;2024-03-02T03:15:54;4.70;99.90
1461;DHT22;724;49.910;12.530;2024-03-02T03:18:21;4.60;99.90
1461;DHT22;724;49.910;12.530;2024-03-02T03:20:47;4.70;99.90
1461;DHT22;724;49.910;12.530;2024-03-02T03:23:15;4.70;99.90
1461;DHT22;724;49.910;12.530;2024-03-02T03:25:42;4.70;99.90
1461;DHT22;724;49.910;12.530;2024-03-02T03:28:09;4.70;99.90
1461;DHT22;724;49.910;12.530;2024-03-02T03:30:38;4.70;99.90
1461;DHT22;724;49.910;12.530;2024-03-02T03:33:05;4.70;99.90
1461;DHT22;724;49.910;12.530;2024-03-02T03:35:32;4.70;99.90
1461;DHT22;724;49.910;12.530;2024-03-02T03:37:59;4.70;99.90
1461;DHT22;724;49.910;12.530;2024-03-02T03:40:26;4.70;99.90
1461;DHT22;724;49.910;12.530;2024-03-02T03:42:52;4.60;99.90
1461;DHT22;724;49.910;12.530;2024-03-02T03:45:21;4.70;99.90
1461;DHT22;724;49.910;12.530;2024-03-02T03:47:49;4.70;99.90
1461;DHT22;724;49.910;12.530;2024-03-02T03:50:16;4.70;99.90
1461;DHT22;724;49.910;12.530;2024-03-02T03:52:43;4.60;99.90
1461;DHT22;724;49.910;12.530;2024-03-02T03:55:09;4.60;99.90
1461;DHT22;724;49.910;12.530;2024-03-02T03:57:36;4.60;99.90
1461;DHT22;724;49.910;12.530;2024-03-02T04:00:03;4.60;99.90
1461;DHT22;724;49.910;12.530;2024-03-02T04:02:30;4.60;99.90
1461;DHT22;724;49.910;12.530;2024-03-02T04:04:58;4.60;99.90
1461;DHT22;724;49.910;12.530;2024-03-02T04:07:25;4.60;99.90
1461;DHT22;724;49.910;12.530;2024-03-02T04:09:51;4.60;99.90
1461;DHT22;724;49.910;12.530;2024-03-02T04:12:18;4.70;99.90
1461;DHT22;724;49.910;12.530;2024-03-02T04:14:45;4.60;99.90
1461;DHT22;724;49.910;12.530;2024-03-02T04:17:11;4.70;99.90
1461;DHT22;724;49.910;12.530;2024-03-02T04:19:38;4.70;99.90
1461;DHT22;724;49.910;12.530;2024-03-02T04:22:06;4.70;99.90
1461;DHT22;724;49.910;12.530;2024-03-02T04:24:33;4.60;99.90
1461;DHT22;724;49.910;12.530;2024-03-02T04:27:00;4.70;99.90
1461;DHT22;724;49.910;12.530;2024-03-02T04:29:27;4.70;99.90
1461;DHT22;724;49.910;12.530;2024-03-02T04:31:54;4.70;99.90
1461;DHT22;724;49.910;12.530;2024-03-02T04:34:21;4.70;99.90
1461;DHT22;724;49.910;12.530;2024-03-02T04:36:48;4.60;99.90
1461;DHT22;724;49.910;12.530;2024-03-02T04:39:16;4.70;99.90
1461;DHT22;724;49.910;12.530;2024-03-02T04:41:43;4.70;99.90
1461;DHT22;724;49.910;12.530;2024-03-02T04:44:10;4.60;99.90
1461;DHT22;724;49.910;12.530;2024-03-02T04:46:36;4.70;99.90
1461;DHT22;724;49.910;12.530;2024-03-02T04:49:03;4.80;99.90
1461;DHT22;724;49.910;12.530;2024-03-02T04:51:30;4.70;99.90
1461;DHT22;724;49.910;12.530;2024-03-02T04:53:57;4.70;99.90
1461;DHT22;724;49.910;12.530;2024-03-02T04:56:25;4.60;99.90
1461;DHT22;724;49.910;12.530;2024-03-02T04:59:09;4.60;99.90
1461;DHT22;724;49.910;12.530;2024-03-02T05:01:36;4.60;99.90
1461;DHT22;724;49.910;12.530;2024-03-02T05:04:03;4.60;99.90
1461;DHT22;724;49.910;12.530;2024-03-02T05:06:30;4.60;99.90
1461;DHT22;724;49.910;12.530;2024-03-02T05:08:56;4.60;99.90
1461;DHT22;724;49.910;12.530;2024-03-02T05:11:24;4.70;99.90
1461;DHT22;724;49.910;12.530;2024-03-02T05:14:09;4.60;99.90
1461;DHT22;724;49.910;12.530;2024-03-02T05:16:36;4.60;99.90
1461;DHT22;724;49.910;12.530;2024-03-02T05:19:04;4.60;99.90
1461;DHT22;724;49.910;12.530;2024-03-02T05:21:32;4.70;99.90
1461;DHT22;724;49.910;12.530;2024-03-02T05:23:59;4.60;99.90
1461;DHT22;724;49.910;12.530;2024-03-02T05:26:27;4.60;99.90
1461;DHT22;724;49.910;12.530;2024-03-02T05:28:53;4.60;99.90
1461;DHT22;724;49.910;12.530;2024-03-02T05:31:20;4.60;99.90
1461;DHT22;724;49.910;12.530;2024-03-02T05:33:47;4.60;99.90
1461;DHT22;724;49.910;12.530;2024-03-02T05:36:13;4.60;99.90
1461;DHT22;724;49.910;12.530;2024-03-02T05:38:40;4.50;99.90
1461;DHT22;724;49.910;12.530;2024-03-02T05:41:07;4.60;99.90
1461;DHT22;724;49.910;12.530;2024-03-02T05:43:35;4.50;99.90
1461;DHT22;724;49.910;12.530;2024-03-02T05:46:03;4.50;99.90
1461;DHT22;724;49.910;12.530;2024-03-02T05:48:29;4.50;99.90
1461;DHT22;724;49.910;12.530;2024-03-02T05:50:56;4.60;99.90
1461;DHT22;724;49.910;12.530;2024-03-02T05:53:23;4.70;99.90
1461;DHT22;724;49.910;12.530;2024-03-02T05:55:49;4.60;99.90
1461;DHT22;724;49.910;12.530;2024-03-02T05:58:19;4.60;99.90
1461;DHT22;724;49.910;12.530;2024-03-02T06:00:58;4.60;99.90
1461;DHT22;724;49.910;12.530;2024-03-02T06:03:24;4.60;99.90
1461;DHT22;724;49.910;12.530;2024-03-02T06:05:51;4.60;99.90
1461;DHT22;724;49.910;12.530;2024-03-02T06:08:18;4.50;99.90
1461;DHT22;724;49.910;12.530;2024-03-02T06:10:45;4.50;99.90
1461;DHT22;724;49.910;12.530;2024-03-02T06:13:12;4.50;99.90
1461;DHT22;724;49.910;12.530;2024-03-02T06:15:38;4.60;99.90
1461;DHT22;724;49.910;12.530;2024-03-02T06:18:06;4.60;99.90
1461;DHT22;724;49.910;12.530;2024-03-02T06:20:33;4.50;99.90
1461;DHT22;724;49.910;12.530;2024-03-02T06:23:00;4.60;99.90
1461;DHT22;724;49.910;12.530;2024-03-02T06:25:27;4.50;99.90
1461;DHT22;724;49.910;12.530;2024-03-02T06:27:54;4.50;99.90
1461;DHT22;724;49.910;12.530;2024-03-02T06:30:20;4.60;99.90
1461;DHT22;724;49.910;12.530;2024-03-02T06:32:47;4.70;99.90
1461;DHT22;724;49.910;12.530;2024-03-02T06:35:15;4.60;99.90
1461;DHT22;724;49.910;12.530;2024-03-02T06:37:42;4.60;99.90
1461;DHT22;724;49.910;12.530;2024-03-02T06:40:09;4.60;99.90
1461;DHT22;724;49.910;12.530;2024-03-02T06:42:36;4.60;99.90
1461;DHT22;724;49.910;12.530;2024-03-02T06:45:03;4.60;99.90
1461;DHT22;724;49.910;12.530;2024-03-02T06:47:30;4.70;99.90
1461;DHT22;724;49.910;12.530;2024-03-02T06:49:57;4.60;99.90
1461;DHT22;724;49.910;12.530;2024-03-02T06:52:25;4.70;99.90
1461;DHT22;724;49.910;12.530;2024-03-02T06:54:52;4.70;99.90
1461;DHT22;724;49.910;12.530;2024-03-02T06:57:18;4.70;99.90
1461;DHT22;724;49.910;12.530;2024-03-02T06:59:46;4.80;99.90
1461;DHT22;724;49.910;12.530;2024-03-02T07:02:14;4.80;99.90
1461;DHT22;724;49.910;12.530;2024-03-02T07:04:40;4.80;99.90
1461;DHT22;724;49.910;12.530;2024-03-02T07:07:07;4.90;99.90
1461;DHT22;724;49.910;12.530;2024-03-02T07:09:35;4.90;99.90
1461;DHT22;724;49.910;12.530;2024-03-02T07:12:02;4.80;99.90
1461;DHT22;724;49.910;12.530;2024-03-02T07:14:29;4.80;99.90
1461;DHT22;724;49.910;12.530;2024-03-02T07:17:09;4.80;99.90
1461;DHT22;724;49.910;12.530;2024-03-02T07:19:38;4.90;99.90
1461;DHT22;724;49.910;12.530;2024-03-02T07:22:06;4.80;99.90
1461;DHT22;724;49.910;12.530;2024-03-02T07:24:40;4.90;99.90
1461;DHT22;724;49.910;12.530;2024-03-02T07:27:07;4.90;99.90
1461;DHT22;724;49.910;12.530;2024-03-02T07:29:34;4.90;99.90
1461;DHT22;724;49.910;12.530;2024-03-02T07:32:01;4.80;99.90
1461;DHT22;724;49.910;12.530;2024-03-02T07:34:28;4.90;99.90
1461;DHT22;724;49.910;12.530;2024-03-02T07:36:55;4.90;99.90
1461;DHT22;724;49.910;12.530;2024-03-02T07:39:25;5.00;99.90
1461;DHT22;724;49.910;12.530;2024-03-02T07:41:53;5.10;99.90
1461;DHT22;724;49.910;12.530;2024-03-02T07:44:20;5.10;99.90
1461;DHT22;724;49.910;12.530;2024-03-02T07:46:47;5.30;99.90
1461;DHT22;724;49.910;12.530;2024-03-02T07:49:15;5.30;99.90
1461;DHT22;724;49.910;12.530;2024-03-02T07:51:42;5.40;99.90
1461;DHT22;724;49.910;12.530;2024-03-02T07:54:09;5.50;99.90
1461;DHT22;724;49.910;12.530;2024-03-02T07:56:36;5.50;99.90
1461;DHT22;724;49.910;12.530;2024-03-02T07:59:04;5.50;99.90
1461;DHT22;724;49.910;12.530;2024-03-02T08:01:33;5.60;99.90
1461;DHT22;724;49.910;12.530;2024-03-02T08:04:00;5.60;99.90
1461;DHT22;724;49.910;12.530;2024-03-02T08:06:29;5.70;99.90
1461;DHT22;724;49.910;12.530;2024-03-02T08:08:57;5.70;99.90
1461;DHT22;724;49.910;12.530;2024-03-02T08:11:24;6.00;99.90
1461;DHT22;724;49.910;12.530;2024-03-02T08:13:56;6.00;99.90
1461;DHT22;724;49.910;12.530;2024-03-02T08:16:26;6.20;99.90
1461;DHT22;724;49.910;12.530;2024-03-02T08:18:53;6.00;99.90
1461;DHT22;724;49.910;12.530;2024-03-02T08:21:22;5.90;99.90
1461;DHT22;724;49.910;12.530;2024-03-02T08:23:50;6.10;99.90
1461;DHT22;724;49.910;12.530;2024-03-02T08:26:17;6.20;99.90
1461;DHT22;724;49.910;12.530;2024-03-02T08:28:57;6.30;99.90
1461;DHT22;724;49.910;12.530;2024-03-02T08:31:44;6.60;99.90
1461;DHT22;724;49.910;12.530;2024-03-02T08:34:10;6.70;99.90
1461;DHT22;724;49.910;12.530;2024-03-02T08:36:37;6.60;99.90
1461;DHT22;724;49.910;12.530;2024-03-02T08:39:04;6.60;99.90
1461;DHT22;724;49.910;12.530;2024-03-02T08:41:33;6.60;99.90
1461;DHT22;724;49.910;12.530;2024-03-02T08:43:59;6.50;99.90
1461;DHT22;724;49.910;12.530;2024-03-02T08:46:27;6.40;99.90
1461;DHT22;724;49.910;12.530;2024-03-02T08:48:55;6.30;99.90
1461;DHT22;724;49.910;12.530;2024-03-02T08:51:22;6.30;99.90
1461;DHT22;724;49.910;12.530;2024-03-02T08:53:48;6.20;99.90
1461;DHT22;724;49.910;12.530;2024-03-02T08:56:15;6.40;99.90
1461;DHT22;724;49.910;12.530;2024-03-02T08:58:43;6.70;99.90
1461;DHT22;724;49.910;12.530;2024-03-02T09:01:10;7.40;99.90
1461;DHT22;724;49.910;12.530;2024-03-02T09:03:37;7.30;27.10
1461;DHT22;724;49.910;12.530;2024-03-02T09:06:05;6.70;1.00
1461;DHT22;724;49.910;12.530;2024-03-02T09:08:32;6.60;99.90
1461;DHT22;724;49.910;12.530;2024-03-02T09:11:01;6.30;99.90
1461;DHT22;724;49.910;12.530;2024-03-02T09:13:28;6.10;99.90
1461;DHT22;724;49.910;12.530;2024-03-02T09:15:55;6.00;99.90
1461;DHT22;724;49.910;12.530;2024-03-02T09:18:22;5.80;99.90
1461;DHT22;724;49.910;12.530;2024-03-02T09:20:49;5.80;99.90
1461;DHT22;724;49.910;12.530;2024-03-02T09:23:17;6.10;99.90
1461;DHT22;724;49.910;12.530;2024-03-02T09:25:44;6.30;99.90
1461;DHT22;724;49.910;12.530;2024-03-02T09:28:10;6.40;99.90
1461;DHT22;724;49.910;12.530;2024-03-02T09:30:37;6.30;99.90
1461;DHT22;724;49.910;12.530;2024-03-02T09:33:04;6.00;99.90
1461;DHT22;724;49.910;12.530;2024-03-02T09:35:31;5.90;99.90
1461;DHT22;724;49.910;12.530;2024-03-02T09:37:58;5.80;99.90
1461;DHT22;724;49.910;12.530;2024-03-02T09:40:26;5.80;99.90
1461;DHT22;724;49.910;12.530;2024-03-02T09:42:54;5.60;99.90
1461;DHT22;724;49.910;12.530;2024-03-02T09:45:23;5.80;99.90
1461;DHT22;724;49.910;12.530;2024-03-02T09:47:50;5.90;99.90
1461;DHT22;724;49.910;12.530;2024-03-02T09:50:17;6.00;99.90
1461;DHT22;724;49.910;12.530;2024-03-02T09:52:44;6.10;99.90
1461;DHT22;724;49.910;12.530;2024-03-02T09:55:14;6.00;99.90
1461;DHT22;724;49.910;12.530;2024-03-02T09:57:44;6.20;99.90
1461;DHT22;724;49.910;12.530;2024-03-02T10:00:12;6.30;99.90
1461;DHT22;724;49.910;12.530;2024-03-02T10:02:40;6.40;99.90
1461;DHT22;724;49.910;12.530;2024-03-02T10:05:08;6.20;99.90
1461;DHT22;724;49.910;12.530;2024-03-02T10:07:35;6.20;99.90
1461;DHT22;724;49.910;12.530;2024-03-02T10:10:12;6.30;99.90
1461;DHT22;724;49.910;12.530;2024-03-02T10:12:39;6.30;99.90
1461;DHT22;724;49.910;12.530;2024-03-02T10:15:08;6.50;99.90
1461;DHT22;724;49.910;12.530;2024-03-02T10:17:35;6.40;99.90
1461;DHT22;724;49.910;12.530;2024-03-02T10:20:23;6.50;99.90
1461;DHT22;724;49.910;12.530;2024-03-02T10:22:50;6.50;99.90
1461;DHT22;724;49.910;12.530;2024-03-02T10:25:29;6.40;99.90
1461;DHT22;724;49.910;12.530;2024-03-02T10:27:57;6.30;99.90
1461;DHT22;724;49.910;12.530;2024-03-02T10:30:26;6.30;99.90
1461;DHT22;724;49.910;12.530;2024-03-02T10:32:53;6.10;99.90
1461;DHT22;724;49.910;12.530;2024-03-02T10:35:21;6.30;99.90
1461;DHT22;724;49.910;12.530;2024-03-02T10:37:48;6.50;99.90
1461;DHT22;724;49.910;12.530;2024-03-02T10:40:16;6.40;99.90
1461;DHT22;724;49.910;12.530;2024-03-02T10:42:44;6.40;99.90
1461;DHT22;724;49.910;12.530;2024-03-02T10:45:12;6.40;1.00
1461;DHT22;724;49.910;12.530;2024-03-02T10:47:42;6.50;1.00
1461;DHT22;724;49.910;12.530;2024-03-02T10:50:09;6.60;1.00
1461;DHT22;724;49.910;12.530;2024-03-02T10:52:36;6.50;1.00
1461;DHT22;724;49.910;12.530;2024-03-02T10:55:05;6.50;1.00
1461;DHT22;724;49.910;12.530;2024-03-02T10:57:40;6.80;1.00
1461;DHT22;724;49.910;12.530;2024-03-02T11:00:10;6.80;99.90
1461;DHT22;724;49.910;12.530;2024-03-02T11:02:42;6.60;99.90
1461;DHT22;724;49.910;12.530;2024-03-02T11:05:18;6.50;99.90
1461;DHT22;724;49.910;12.530;2024-03-02T11:07:51;6.50;99.90
1461;DHT22;724;49.910;12.530;2024-03-02T11:10:20;6.60;99.90
1461;DHT22;724;49.910;12.530;2024-03-02T11:12:53;6.60;99.90
1461;DHT22;724;49.910;12.530;2024-03-02T11:15:21;6.90;99.90
1461;DHT22;724;49.910;12.530;2024-03-02T11:17:52;6.90;99.90
1461;DHT22;724;49.910;12.530;2024-03-02T11:20:19;6.70;99.90
1461;DHT22;724;49.910;12.530;2024-03-02T11:22:46;6.70;99.90
1461;DHT22;724;49.910;12.530;2024-03-02T11:25:23;6.60;99.90
1461;DHT22;724;49.910;12.530;2024-03-02T11:28:00;6.70;99.90
1461;DHT22;724;49.910;12.530;2024-03-02T11:30:50;6.70;99.90
1461;DHT22;724;49.910;12.530;2024-03-02T11:33:26;6.90;1.00
1461;DHT22;724;49.910;12.530;2024-03-02T11:35:57;7.00;1.00
1461;DHT22;724;49.910;12.530;2024-03-02T11:38:29;7.00;1.00
1461;DHT22;724;49.910;12.530;2024-03-02T11:40:56;6.90;1.00
1461;DHT22;724;49.910;12.530;2024-03-02T11:43:25;7.10;1.00
1461;DHT22;724;49.910;12.530;2024-03-02T11:45:57;7.10;1.00
1461;DHT22;724;49.910;12.530;2024-03-02T11:48:26;7.20;1.00
1461;DHT22;724;49.910;12.530;2024-03-02T11:50:53;7.30;1.00
1461;DHT22;724;49.910;12.530;2024-03-02T11:53:22;7.20;1.00
1461;DHT22;724;49.910;12.530;2024-03-02T11:55:50;7.20;1.00
1461;DHT22;724;49.910;12.530;2024-03-02T11:58:18;7.00;1.00
1461;DHT22;724;49.910;12.530;2024-03-02T12:00:50;7.10;1.00
1461;DHT22;724;49.910;12.530;2024-03-02T12:03:21;7.30;1.00
1461;DHT22;724;49.910;12.530;2024-03-02T12:05:55;7.40;1.00
1461;DHT22;724;49.910;12.530;2024-03-02T12:08:28;7.50;1.00
1461;DHT22;724;49.910;12.530;2024-03-02T12:10:59;7.60;99.90
1461;DHT22;724;49.910;12.530;2024-03-02T12:13:26;7.70;99.90
1461;DHT22;724;49.910;12.530;2024-03-02T12:15:53;7.50;99.90
1461;DHT22;724;49.910;12.530;2024-03-02T12:18:21;7.20;1.00
1461;DHT22;724;49.910;12.530;2024-03-02T12:20:48;7.20;1.00
1461;DHT22;724;49.910;12.530;2024-03-02T12:23:18;7.40;1.00
1461;DHT22;724;49.910;12.530;2024-03-02T12:25:45;7.20;1.00
1461;DHT22;724;49.910;12.530;2024-03-02T12:28:12;7.20;1.00
1461;DHT22;724;49.910;12.530;2024-03-02T12:30:39;7.00;1.00
1461;DHT22;724;49.910;12.530;2024-03-02T12:33:06;7.00;1.00
1461;DHT22;724;49.910;12.530;2024-03-02T12:35:32;7.20;1.00
1461;DHT22;724;49.910;12.530;2024-03-02T12:37:59;7.00;1.00
1461;DHT22;724;49.910;12.530;2024-03-02T12:40:27;6.90;1.00
1461;DHT22;724;49.910;12.530;2024-03-02T12:42:54;6.80;1.00
1461;DHT22;724;49.910;12.530;2024-03-02T12:45:21;7.00;1.00
1461;DHT22;724;49.910;12.530;2024-03-02T12:47:51;7.10;1.00
1461;DHT22;724;49.910;12.530;2024-03-02T12:50:18;6.80;1.00
1461;DHT22;724;49.910;12.530;2024-03-02T12:52:51;7.00;1.00
1461;DHT22;724;49.910;12.530;2024-03-02T12:55:19;7.00;1.00
1461;DHT22;724;49.910;12.530;2024-03-02T12:57:47;7.00;1.00
1461;DHT22;724;49.910;12.530;2024-03-02T13:00:18;7.00;1.00
1461;DHT22;724;49.910;12.530;2024-03-02T13:02:46;7.00;1.00
1461;DHT22;724;49.910;12.530;2024-03-02T13:05:13;7.00;1.00
1461;DHT22;724;49.910;12.530;2024-03-02T13:07:40;7.10;1.00
1461;DHT22;724;49.910;12.530;2024-03-02T13:10:08;7.20;1.00
1461;DHT22;724;49.910;12.530;2024-03-02T13:12:36;7.00;1.00
1461;DHT22;724;49.910;12.530;2024-03-02T13:15:05;7.00;1.00
1461;DHT22;724;49.910;12.530;2024-03-02T13:17:34;6.90;1.00
1461;DHT22;724;49.910;12.530;2024-03-02T13:20:02;7.00;1.00
1461;DHT22;724;49.910;12.530;2024-03-02T13:22:38;7.00;1.00
1461;DHT22;724;49.910;12.530;2024-03-02T13:25:05;7.10;1.00
1461;DHT22;724;49.910;12.530;2024-03-02T13:27:35;7.10;1.00
1461;DHT22;724;49.910;12.530;2024-03-02T13:30:06;7.00;1.00
1461;DHT22;724;49.910;12.530;2024-03-02T13:32:34;7.00;1.00
1461;DHT22;724;49.910;12.530;2024-03-02T13:35:01;7.00;1.00
1461;DHT22;724;49.910;12.530;2024-03-02T13:37:28;6.80;1.00
1461;DHT22;724;49.910;12.530;2024-03-02T13:39:55;6.80;99.90
1461;DHT22;724;49.910;12.530;2024-03-02T13:42:21;6.90;99.90
1461;DHT22;724;49.910;12.530;2024-03-02T13:44:48;6.90;1.00
1461;DHT22;724;49.910;12.530;2024-03-02T13:47:18;6.80;1.00
1461;DHT22;724;49.910;12.530;2024-03-02T13:49:44;6.80;1.00
1461;DHT22;724;49.910;12.530;2024-03-02T13:52:12;6.80;1.00
1461;DHT22;724;49.910;12.530;2024-03-02T13:54:43;6.80;1.00
1461;DHT22;724;49.910;12.530;2024-03-02T13:57:20;6.70;1.00
1461;DHT22;724;49.910;12.530;2024-03-02T13:59:49;6.50;1.00
1461;DHT22;724;49.910;12.530;2024-03-02T14:02:18;6.60;1.00
1461;DHT22;724;49.910;12.530;2024-03-02T14:04:45;6.60;1.00
1461;DHT22;724;49.910;12.530;2024-03-02T14:07:12;6.50;1.00
1461;DHT22;724;49.910;12.530;2024-03-02T14:09:38;6.50;1.00
1461;DHT22;724;49.910;12.530;2024-03-02T14:12:05;6.40;1.00
1461;DHT22;724;49.910;12.530;2024-03-02T14:14:32;6.50;1.00
1461;DHT22;724;49.910;12.530;2024-03-02T14:16:59;6.50;1.00
1461;DHT22;724;49.910;12.530;2024-03-02T14:19:31;6.50;1.00
1461;DHT22;724;49.910;12.530;2024-03-02T14:21:58;6.60;1.00
1461;DHT22;724;49.910;12.530;2024-03-02T14:24:24;6.40;99.90
1461;DHT22;724;49.910;12.530;2024-03-02T14:26:52;6.40;99.90
1461;DHT22;724;49.910;12.530;2024-03-02T14:29:18;6.40;99.90
1461;DHT22;724;49.910;12.530;2024-03-02T14:31:45;6.40;99.90
1461;DHT22;724;49.910;12.530;2024-03-02T14:34:13;6.30;99.90
1461;DHT22;724;49.910;12.530;2024-03-02T14:36:42;6.40;99.90
1461;DHT22;724;49.910;12.530;2024-03-02T14:39:09;6.40;99.90
1461;DHT22;724;49.910;12.530;2024-03-02T14:41:36;6.30;99.90
1461;DHT22;724;49.910;12.530;2024-03-02T14:44:03;6.40;99.90
1461;DHT22;724;49.910;12.530;2024-03-02T14:46:30;6.30;99.90
1461;DHT22;724;49.910;12.530;2024-03-02T14:48:57;6.30;99.90
1461;DHT22;724;49.910;12.530;2024-03-02T14:51:25;6.40;99.90
1461;DHT22;724;49.910;12.530;2024-03-02T14:53:53;6.40;99.90
1461;DHT22;724;49.910;12.530;2024-03-02T14:56:19;6.30;99.90
1461;DHT22;724;49.910;12.530;2024-03-02T14:58:46;6.30;99.90
1461;DHT22;724;49.910;12.530;2024-03-02T15:01:13;6.30;99.90
1461;DHT22;724;49.910;12.530;2024-03-02T15:03:42;6.30;99.90
1461;DHT22;724;49.910;12.530;2024-03-02T15:06:09;6.30;99.90
1461;DHT22;724;49.910;12.530;2024-03-02T15:08:36;6.20;99.90
1461;DHT22;724;49.910;12.530;2024-03-02T15:11:05;6.20;99.90
1461;DHT22;724;49.910;12.530;2024-03-02T15:13:31;6.20;99.90
1461;DHT22;724;49.910;12.530;2024-03-02T15:15:59;6.30;99.90
1461;DHT22;724;49.910;12.530;2024-03-02T15:18:26;6.20;99.80
1461;DHT22;724;49.910;12.530;2024-03-02T15:20:53;6.40;40.00
1461;DHT22;724;49.910;12.530;2024-03-02T15:23:20;6.40;1.00
1461;DHT22;724;49.910;12.530;2024-03-02T15:25:46;6.30;1.00
1461;DHT22;724;49.910;12.530;2024-03-02T15:28:14;6.30;1.00
1461;DHT22;724;49.910;12.530;2024-03-02T15:30:41;6.30;1.00
1461;DHT22;724;49.910;12.530;2024-03-02T15:33:08;6.30;1.00
1461;DHT22;724;49.910;12.530;2024-03-02T15:35:35;6.30;1.00
1461;DHT22;724;49.910;12.530;2024-03-02T15:38:01;6.30;1.00
1461;DHT22;724;49.910;12.530;2024-03-02T15:40:28;6.40;1.00
1461;DHT22;724;49.910;12.530;2024-03-02T15:42:55;6.40;1.00
1461;DHT22;724;49.910;12.530;2024-03-02T15:45:23;6.40;1.00
1461;DHT22;724;49.910;12.530;2024-03-02T15:47:51;6.40;93.20
1461;DHT22;724;49.910;12.530;2024-03-02T15:50:18;6.30;99.90
1461;DHT22;724;49.910;12.530;2024-03-02T15:52:45;6.40;99.90
1461;DHT22;724;49.910;12.530;2024-03-02T15:55:12;6.30;99.90
1461;DHT22;724;49.910;12.530;2024-03-02T15:57:39;6.40;99.90
1461;DHT22;724;49.910;12.530;2024-03-02T16:00:06;6.40;99.90
1461;DHT22;724;49.910;12.530;2024-03-02T16:02:35;6.30;99.90
1461;DHT22;724;49.910;12.530;2024-03-02T16:05:01;6.20;99.90
1461;DHT22;724;49.910;12.530;2024-03-02T16:07:28;6.10;99.90
1461;DHT22;724;49.910;12.530;2024-03-02T16:09:55;6.10;99.90
1461;DHT22;724;49.910;12.530;2024-03-02T16:12:22;6.10;99.90
1461;DHT22;724;49.910;12.530;2024-03-02T16:14:48;6.10;99.90
1461;DHT22;724;49.910;12.530;2024-03-02T16:17:15;6.10;99.90
1461;DHT22;724;49.910;12.530;2024-03-02T16:19:43;6.10;99.90
1461;DHT22;724;49.910;12.530;2024-03-02T16:22:10;6.10;1.00
1461;DHT22;724;49.910;12.530;2024-03-02T16:24:37;6.10;1.00
1461;DHT22;724;49.910;12.530;2024-03-02T16:27:04;6.10;1.00